Aviator — V7NU9 — position and weather

sailwx.info

Track history (hours):
 
Tides and Currents Weather Stations Pressure Air Temp Water Temp Dewpoint Dewpoint Depression Visibility Wind Speed Wind Dir Waves Ship Positions

Aviator

Last reported at 2017-Feb-03 02:27 UTC. Time now 2017-May-25 12:18 UTC.
Position S 34°45' W 057°36'.
Warning: this ship's position is months out of date.

Length 140 m; draft 8.5 m.

Type: Ship. MMSI: 538003023.

Date/timePositionNaut miles runAvg speedWind from/ knotsBaromVisibWave heightAir tempDewpointWater temp
2017-Feb-03 02:27S 34°45' W 057°36'1010.9
2017-Feb-03 01:33S 34°44' W 057°48'3 3.2
2017-Feb-03 00:33S 34°43' W 057°51'0 0.0
2017-Feb-02 23:33S 34°43' W 057°51'0 0.0
2017-Feb-02 22:33S 34°43' W 057°51'0 0.0
2017-Feb-02 21:33S 34°43' W 057°51'0 0.2
2017-Feb-02 20:30S 34°43' W 057°51'0 0.0
2017-Feb-02 19:33S 34°43' W 057°51'0 0.0
2017-Feb-02 18:33S 34°43' W 057°51'0 0.0
2017-Feb-02 17:30S 34°43' W 057°51'0 0.0
2017-Feb-02 16:33S 34°43' W 057°51'0 0.0
2017-Feb-02 15:33S 34°43' W 057°51'0 0.0
2017-Feb-02 14:33S 34°43' W 057°51'0 0.1
2017-Feb-02 13:33S 34°43' W 057°51'0 0.1
2017-Feb-02 12:06S 34°43' W 057°51'0 0.0
2017-Feb-02 11:27S 34°43' W 057°51'0 0.0
2017-Feb-02 10:33S 34°43' W 057°51'0 0.0
2017-Feb-02 09:30S 34°43' W 057°51'0 0.1
2017-Feb-02 08:27S 34°43' W 057°51'0 0.1
2017-Feb-02 07:33S 34°43' W 057°51'0 0.0
2017-Feb-02 06:33S 34°43' W 057°51'0 0.0
2017-Feb-02 05:24S 34°43' W 057°51'0 0.1
2017-Feb-02 04:33S 34°43' W 057°51'0 0.2
2017-Feb-02 03:21S 34°43' W 057°51'0 0.0
2017-Feb-02 02:33S 34°43' W 057°51'0 0.0
2017-Feb-02 01:33S 34°43' W 057°51'0 0.0
2017-Feb-02 00:33S 34°43' W 057°51'0 0.0
2017-Feb-01 23:33S 34°43' W 057°51'0 0.0
2017-Feb-01 22:33S 34°43' W 057°51'0 0.0
2017-Feb-01 21:33S 34°43' W 057°51'0 0.0
2017-Feb-01 20:33S 34°43' W 057°51'1 1.5
2017-Feb-01 19:33S 34°42' W 057°53'9 9.4
2017-Feb-01 18:33S 34°39' W 058°04'61 1.4
2017-Jan-31 00:21S 33°54' W 058°53'  
Track history (hours):
 
Tides and Currents Weather Stations Pressure Air Temp Water Temp Dewpoint Dewpoint Depression Visibility Wind Speed Wind Dir Waves Ship Positions

Aviator

Last reported at 2017-Feb-03 02:27 UTC. Time now 2017-May-25 12:18 UTC.
Position S 34°45' W 057°36'.
Warning: this ship's position is months out of date.

Length 140 m; draft 8.5 m.

Type: Ship. MMSI: 538003023.

Date/timePositionNaut miles runAvg speedWind from/ knotsBaromVisibWave heightAir tempDewpointWater temp
2017-Feb-03 02:27S 34°45' W 057°36'1010.9
2017-Feb-03 01:33S 34°44' W 057°48'3 3.2
2017-Feb-03 00:33S 34°43' W 057°51'0 0.0
2017-Feb-02 23:33S 34°43' W 057°51'0 0.0
2017-Feb-02 22:33S 34°43' W 057°51'0 0.0
2017-Feb-02 21:33S 34°43' W 057°51'0 0.2
2017-Feb-02 20:30S 34°43' W 057°51'0 0.0
2017-Feb-02 19:33S 34°43' W 057°51'0 0.0
2017-Feb-02 18:33S 34°43' W 057°51'0 0.0
2017-Feb-02 17:30S 34°43' W 057°51'0 0.0
2017-Feb-02 16:33S 34°43' W 057°51'0 0.0
2017-Feb-02 15:33S 34°43' W 057°51'0 0.0
2017-Feb-02 14:33S 34°43' W 057°51'0 0.1
2017-Feb-02 13:33S 34°43' W 057°51'0 0.1
2017-Feb-02 12:06S 34°43' W 057°51'0 0.0
2017-Feb-02 11:27S 34°43' W 057°51'0 0.0
2017-Feb-02 10:33S 34°43' W 057°51'0 0.0
2017-Feb-02 09:30S 34°43' W 057°51'0 0.1
2017-Feb-02 08:27S 34°43' W 057°51'0 0.1
2017-Feb-02 07:33S 34°43' W 057°51'0 0.0
2017-Feb-02 06:33S 34°43' W 057°51'0 0.0
2017-Feb-02 05:24S 34°43' W 057°51'0 0.1
2017-Feb-02 04:33S 34°43' W 057°51'0 0.2
2017-Feb-02 03:21S 34°43' W 057°51'0 0.0
2017-Feb-02 02:33S 34°43' W 057°51'0 0.0
2017-Feb-02 01:33S 34°43' W 057°51'0 0.0
2017-Feb-02 00:33S 34°43' W 057°51'0 0.0
2017-Feb-01 23:33S 34°43' W 057°51'0 0.0
2017-Feb-01 22:33S 34°43' W 057°51'0 0.0
2017-Feb-01 21:33S 34°43' W 057°51'0 0.0
2017-Feb-01 20:33S 34°43' W 057°51'1 1.5
2017-Feb-01 19:33S 34°42' W 057°53'9 9.4
2017-Feb-01 18:33S 34°39' W 058°04'61 1.4
2017-Jan-31 00:21S 33°54' W 058°53'  

Dump ship's entire track history